Terminal Aerodrome Forecast
Issued by NWS

Home | Current Version | Previous Version | Text Only | Print | Product List | Glossary On
Versions: 1 2 3 4 5 6 7 8 9 10 11 12 13 14 15 16 17 18 19 20 21
534
FTUS41 KAKQ 162340
TAFPHF
TAF
KPHF 162340Z 1700/1724 08003KT P6SM OVC025
     FM170700 00000KT P6SM OVC012
     FM171200 19003KT 3SM BR SCT008 OVC012
     FM171600 20006KT P6SM OVC012
     FM171800 20007KT P6SM OVC070=

USA.gov is the U.S. government's official web portal to all federal, state and local government web resources and services.